sensor_id;sensor_type;location;lat;lon;timestamp;pressure;altitude;pressure_sealevel;temperature;humidity
46942;BME280;32676;52.630;4.896;2023-09-19T00:01:29;98860.03;;;15.12;69.64
46942;BME280;32676;52.630;4.896;2023-09-19T00:03:58;98865.56;;;15.09;69.94
46942;BME280;32676;52.630;4.896;2023-09-19T00:06:25;98881.91;;;15.14;70.63
46942;BME280;32676;52.630;4.896;2023-09-19T00:08:56;98899.06;;;15.20;70.04
46942;BME280;32676;52.630;4.896;2023-09-19T00:11:24;98905.19;;;15.20;70.33
46942;BME280;32676;52.630;4.896;2023-09-19T00:13:51;98913.84;;;15.22;69.65
46942;BME280;32676;52.630;4.896;2023-09-19T00:16:17;98913.84;;;15.22;69.88
46942;BME280;32676;52.630;4.896;2023-09-19T00:18:45;98910.50;;;15.20;69.87
46942;BME280;32676;52.630;4.896;2023-09-19T00:21:12;98898.25;;;15.19;69.85
46942;BME280;32676;52.630;4.896;2023-09-19T00:23:40;98879.25;;;15.14;69.81
46942;BME280;32676;52.630;4.896;2023-09-19T00:26:07;98884.56;;;15.14;69.13
46942;BME280;32676;52.630;4.896;2023-09-19T00:28:33;98870.16;;;15.07;68.50
46942;BME280;32676;52.630;4.896;2023-09-19T00:31:01;98874.22;;;15.11;68.55
46942;BME280;32676;52.630;4.896;2023-09-19T00:33:27;98870.84;;;15.09;67.99
46942;BME280;32676;52.630;4.896;2023-09-19T00:35:56;98877.84;;;15.10;68.26
46942;BME280;32676;52.630;4.896;2023-09-19T00:38:24;98862.69;;;15.01;68.67
46942;BME280;32676;52.630;4.896;2023-09-19T00:40:52;98880.34;;;15.11;69.21
46942;BME280;32676;52.630;4.896;2023-09-19T00:43:19;98882.03;;;15.12;68.94
46942;BME280;32676;52.630;4.896;2023-09-19T00:45:47;98892.50;;;15.14;68.27
46942;BME280;32676;52.630;4.896;2023-09-19T00:48:14;98893.44;;;15.13;67.43
46942;BME280;32676;52.630;4.896;2023-09-19T00:50:43;98896.09;;;15.13;67.39
46942;BME280;32676;52.630;4.896;2023-09-19T00:53:12;98896.78;;;15.15;67.40
46942;BME280;32676;52.630;4.896;2023-09-19T00:55:41;98886.50;;;15.12;67.39
46942;BME280;32676;52.630;4.896;2023-09-19T00:58:10;98894.31;;;15.13;67.02
46942;BME280;32676;52.630;4.896;2023-09-19T01:00:37;98887.56;;;15.09;67.62
46942;BME280;32676;52.630;4.896;2023-09-19T01:03:05;98876.66;;;15.03;67.60
46942;BME280;32676;52.630;4.896;2023-09-19T01:05:33;98889.38;;;15.09;67.62
46942;BME280;32676;52.630;4.896;2023-09-19T01:08:01;98881.44;;;15.09;67.95
46942;BME280;32676;52.630;4.896;2023-09-19T01:10:27;98884.09;;;15.09;67.91
46942;BME280;32676;52.630;4.896;2023-09-19T01:13:10;98880.84;;;15.05;68.26
46942;BME280;32676;52.630;4.896;2023-09-19T01:15:45;98883.38;;;15.07;67.92
46942;BME280;32676;52.630;4.896;2023-09-19T01:18:21;98885.03;;;15.08;67.97
46942;BME280;32676;52.630;4.896;2023-09-19T01:20:57;98893.72;;;15.10;68.23
46942;BME280;32676;52.630;4.896;2023-09-19T01:23:46;98895.38;;;15.11;68.06
46942;BME280;32676;52.630;4.896;2023-09-19T01:26:30;98911.00;;;15.14;68.52
46942;BME280;32676;52.630;4.896;2023-09-19T01:29:23;98922.66;;;15.11;68.26
46942;BME280;32676;52.630;4.896;2023-09-19T01:32:01;98956.19;;;15.22;68.43
46942;BME280;32676;52.630;4.896;2023-09-19T01:34:43;98966.75;;;15.22;69.10
46942;BME280;32676;52.630;4.896;2023-09-19T01:37:10;98975.19;;;15.27;69.18
46942;BME280;32676;52.630;4.896;2023-09-19T01:39:37;98997.75;;;15.31;69.65
46942;BME280;32676;52.630;4.896;2023-09-19T01:42:09;99011.59;;;15.35;70.07
46942;BME280;32676;52.630;4.896;2023-09-19T01:44:46;99034.34;;;15.38;70.15
46942;BME280;32676;52.630;4.896;2023-09-19T01:47:23;99049.81;;;15.42;70.31
46942;BME280;32676;52.630;4.896;2023-09-19T01:49:56;99042.16;;;15.39;70.47
46942;BME280;32676;52.630;4.896;2023-09-19T01:52:30;99036.00;;;15.39;69.33
46942;BME280;32676;52.630;4.896;2023-09-19T01:55:03;99029.03;;;15.38;67.92
46942;BME280;32676;52.630;4.896;2023-09-19T01:57:34;99027.34;;;15.36;66.59
46942;BME280;32676;52.630;4.896;2023-09-19T02:00:05;99017.88;;;15.34;66.04
46942;BME280;32676;52.630;4.896;2023-09-19T02:02:36;99015.34;;;15.32;65.41
46942;BME280;32676;52.630;4.896;2023-09-19T02:05:04;99003.34;;;15.28;65.46
46942;BME280;32676;52.630;4.896;2023-09-19T02:07:31;98996.59;;;15.24;65.88
46942;BME280;32676;52.630;4.896;2023-09-19T02:09:58;98976.75;;;15.19;65.79
46942;BME280;32676;52.630;4.896;2023-09-19T02:12:25;98967.03;;;15.19;65.66
46942;BME280;32676;52.630;4.896;2023-09-19T02:14:51;98960.06;;;15.18;65.52
46942;BME280;32676;52.630;4.896;2023-09-19T02:17:18;98960.06;;;15.18;66.16
46942;BME280;32676;52.630;4.896;2023-09-19T02:19:45;98959.47;;;15.14;65.68
46942;BME280;32676;52.630;4.896;2023-09-19T02:22:12;98961.75;;;15.19;65.95
46942;BME280;32676;52.630;4.896;2023-09-19T02:24:39;98974.97;;;15.19;66.23
46942;BME280;32676;52.630;4.896;2023-09-19T02:27:05;98971.47;;;15.19;66.76
46942;BME280;32676;52.630;4.896;2023-09-19T02:29:33;98980.97;;;15.21;67.05
46942;BME280;32676;52.630;4.896;2023-09-19T02:32:00;98970.88;;;15.15;67.46
46942;BME280;32676;52.630;4.896;2023-09-19T02:34:27;98984.56;;;15.20;67.87
46942;BME280;32676;52.630;4.896;2023-09-19T02:36:55;98987.94;;;15.22;68.35
46942;BME280;32676;52.630;4.896;2023-09-19T02:39:21;98988.06;;;15.21;69.03
46942;BME280;32676;52.630;4.896;2023-09-19T02:41:48;99000.22;;;15.23;69.09
46942;BME280;32676;52.630;4.896;2023-09-19T02:44:15;99007.03;;;15.26;69.01
46942;BME280;32676;52.630;4.896;2023-09-19T02:46:41;99022.81;;;15.27;69.20
46942;BME280;32676;52.630;4.896;2023-09-19T02:49:08;99033.16;;;15.30;69.47
46942;BME280;32676;52.630;4.896;2023-09-19T02:51:34;99042.75;;;15.31;69.89
46942;BME280;32676;52.630;4.896;2023-09-19T02:54:02;99061.75;;;15.36;70.39
46942;BME280;32676;52.630;4.896;2023-09-19T02:56:29;99075.69;;;15.39;70.30
46942;BME280;32676;52.630;4.896;2023-09-19T02:58:57;99058.63;;;15.31;70.62
46942;BME280;32676;52.630;4.896;2023-09-19T03:01:25;99060.22;;;15.34;71.63
46942;BME280;32676;52.630;4.896;2023-09-19T03:03:52;99033.28;;;15.29;72.14
46942;BME280;32676;52.630;4.896;2023-09-19T03:06:19;99022.09;;;15.25;72.26
46942;BME280;32676;52.630;4.896;2023-09-19T03:08:45;99017.75;;;15.24;72.25
46942;BME280;32676;52.630;4.896;2023-09-19T03:11:15;99017.75;;;15.24;72.35
46942;BME280;32676;52.630;4.896;2023-09-19T03:13:44;99009.50;;;15.18;72.50
46942;BME280;32676;52.630;4.896;2023-09-19T03:16:11;99023.03;;;15.24;72.58
46942;BME280;32676;52.630;4.896;2023-09-19T03:18:40;99018.72;;;15.23;72.43
46942;BME280;32676;52.630;4.896;2023-09-19T03:21:06;99028.34;;;15.24;72.50
46942;BME280;32676;52.630;4.896;2023-09-19T03:23:33;99037.03;;;15.26;72.43
46942;BME280;32676;52.630;4.896;2023-09-19T03:25:59;99032.19;;;15.20;72.39
46942;BME280;32676;52.630;4.896;2023-09-19T03:28:27;99045.91;;;15.25;72.32
46942;BME280;32676;52.630;4.896;2023-09-19T03:30:58;99056.25;;;15.28;72.07
46942;BME280;32676;52.630;4.896;2023-09-19T03:33:26;99064.06;;;15.30;71.73
46942;BME280;32676;52.630;4.896;2023-09-19T03:35:52;99064.91;;;15.30;71.93
46942;BME280;32676;52.630;4.896;2023-09-19T03:38:19;99065.16;;;15.27;71.18
46942;BME280;32676;52.630;4.896;2023-09-19T03:40:46;99045.91;;;15.25;71.13
46942;BME280;32676;52.630;4.896;2023-09-19T03:43:14;99033.19;;;15.19;70.98
46942;BME280;32676;52.630;4.896;2023-09-19T03:45:41;99033.91;;;15.21;70.91
46942;BME280;32676;52.630;4.896;2023-09-19T03:48:08;99024.06;;;15.12;70.70
46942;BME280;32676;52.630;4.896;2023-09-19T03:50:35;99047.84;;;15.23;71.08
46942;BME280;32676;52.630;4.896;2023-09-19T03:53:01;99056.50;;;15.25;71.32
46942;BME280;32676;52.630;4.896;2023-09-19T03:55:28;99063.47;;;15.26;70.96
46942;BME280;32676;52.630;4.896;2023-09-19T03:57:55;99063.47;;;15.26;71.00
46942;BME280;32676;52.630;4.896;2023-09-19T04:00:22;99064.44;;;15.25;70.96
46942;BME280;32676;52.630;4.896;2023-09-19T04:02:53;99072.97;;;15.29;71.00
46942;BME280;32676;52.630;4.896;2023-09-19T04:05:21;99066.13;;;15.26;70.41
46942;BME280;32676;52.630;4.896;2023-09-19T04:07:48;99060.25;;;15.23;70.18
46942;BME280;32676;52.630;4.896;2023-09-19T04:10:15;99057.00;;;15.19;69.69
46942;BME280;32676;52.630;4.896;2023-09-19T04:12:50;99060.94;;;15.25;69.29
46942;BME280;32676;52.630;4.896;2023-09-19T04:15:17;99072.38;;;15.25;69.01
46942;BME280;32676;52.630;4.896;2023-09-19T04:17:43;99060.34;;;15.21;68.86
46942;BME280;32676;52.630;4.896;2023-09-19T04:20:11;99052.53;;;15.20;68.58
46942;BME280;32676;52.630;4.896;2023-09-19T04:22:38;99037.72;;;15.17;68.68
46942;BME280;32676;52.630;4.896;2023-09-19T04:25:05;99011.78;;;15.11;67.85
46942;BME280;32676;52.630;4.896;2023-09-19T04:27:33;98997.13;;;15.07;67.46
46942;BME280;32676;52.630;4.896;2023-09-19T04:29:59;98999.78;;;15.07;67.37
46942;BME280;32676;52.630;4.896;2023-09-19T04:32:29;98991.13;;;15.05;67.47
46942;BME280;32676;52.630;4.896;2023-09-19T04:34:57;98983.31;;;15.03;67.91
46942;BME280;32676;52.630;4.896;2023-09-19T04:37:29;98968.50;;;15.01;68.63
46942;BME280;32676;52.630;4.896;2023-09-19T04:39:55;98971.16;;;15.01;69.00
46942;BME280;32676;52.630;4.896;2023-09-19T04:42:22;98980.78;;;15.02;68.95
46942;BME280;32676;52.630;4.896;2023-09-19T04:44:49;98985.25;;;15.01;68.94
46942;BME280;32676;52.630;4.896;2023-09-19T04:47:19;98977.53;;;14.98;69.21
46942;BME280;32676;52.630;4.896;2023-09-19T04:49:46;98962.63;;;14.97;69.11
46942;BME280;32676;52.630;4.896;2023-09-19T04:52:12;98956.63;;;14.95;68.98
46942;BME280;32676;52.630;4.896;2023-09-19T04:54:41;98943.31;;;14.85;68.21
46942;BME280;32676;52.630;4.896;2023-09-19T04:57:08;98938.03;;;14.85;68.19
46942;BME280;32676;52.630;4.896;2023-09-19T04:59:34;98955.91;;;14.93;67.78
46942;BME280;32676;52.630;4.896;2023-09-19T05:02:01;98952.44;;;14.92;68.27
46942;BME280;32676;52.630;4.896;2023-09-19T05:04:27;98962.03;;;14.93;68.37
46942;BME280;32676;52.630;4.896;2023-09-19T05:06:54;98957.59;;;14.94;68.77
46942;BME280;32676;52.630;4.896;2023-09-19T05:09:20;98958.66;;;14.91;69.21
46942;BME280;32676;52.630;4.896;2023-09-19T05:11:48;98962.03;;;14.93;69.36
46942;BME280;32676;52.630;4.896;2023-09-19T05:14:16;98970.34;;;14.89;69.28
46942;BME280;32676;52.630;4.896;2023-09-19T05:16:43;98979.59;;;14.94;69.27
46942;BME280;32676;52.630;4.896;2023-09-19T05:19:09;98986.81;;;14.92;69.37
46942;BME280;32676;52.630;4.896;2023-09-19T05:21:36;99001.09;;;15.01;68.92
46942;BME280;32676;52.630;4.896;2023-09-19T05:24:04;99009.16;;;15.00;68.71
46942;BME280;32676;52.630;4.896;2023-09-19T05:26:32;99003.88;;;15.00;68.81
46942;BME280;32676;52.630;4.896;2023-09-19T05:28:59;99005.53;;;15.01;68.36
46942;BME280;32676;52.630;4.896;2023-09-19T05:31:28;99007.72;;;14.95;67.95
46942;BME280;32676;52.630;4.896;2023-09-19T05:34:06;99024.81;;;15.03;68.08
46942;BME280;32676;52.630;4.896;2023-09-19T05:36:32;99036.81;;;15.07;68.19
46942;BME280;32676;52.630;4.896;2023-09-19T05:38:59;99039.34;;;15.08;67.84
46942;BME280;32676;52.630;4.896;2023-09-19T05:41:25;99058.44;;;15.12;68.38
46942;BME280;32676;52.630;4.896;2023-09-19T05:43:52;99068.06;;;15.13;68.55
46942;BME280;32676;52.630;4.896;2023-09-19T05:46:20;99079.34;;;15.15;68.88
46942;BME280;32676;52.630;4.896;2023-09-19T05:48:47;99117.34;;;15.25;69.11
46942;BME280;32676;52.630;4.896;2023-09-19T05:51:15;99152.97;;;15.32;68.16
46942;BME280;32676;52.630;4.896;2023-09-19T05:53:43;99192.88;;;15.41;67.51
46942;BME280;32676;52.630;4.896;2023-09-19T05:56:09;99221.41;;;15.48;67.03
46942;BME280;32676;52.630;4.896;2023-09-19T05:58:36;99248.22;;;15.55;66.40
46942;BME280;32676;52.630;4.896;2023-09-19T06:01:03;99279.53;;;15.61;66.17
46942;BME280;32676;52.630;4.896;2023-09-19T06:03:33;99283.84;;;15.62;65.98
46942;BME280;32676;52.630;4.896;2023-09-19T06:06:00;99305.66;;;15.66;65.37
46942;BME280;32676;52.630;4.896;2023-09-19T06:08:27;99320.47;;;15.68;65.46
46942;BME280;32676;52.630;4.896;2023-09-19T06:10:54;99343.84;;;15.74;65.14
46942;BME280;32676;52.630;4.896;2023-09-19T06:13:20;99362.03;;;15.79;65.58
46942;BME280;32676;52.630;4.896;2023-09-19T06:15:47;99375.91;;;15.83;65.77
46942;BME280;32676;52.630;4.896;2023-09-19T06:18:15;99401.19;;;15.87;66.12
46942;BME280;32676;52.630;4.896;2023-09-19T06:20:46;99430.56;;;15.95;66.75
46942;BME280;32676;52.630;4.896;2023-09-19T06:23:13;99442.13;;;15.94;67.21
46942;BME280;32676;52.630;4.896;2023-09-19T06:25:39;99458.53;;;15.99;67.53
46942;BME280;32676;52.630;4.896;2023-09-19T06:28:06;99480.19;;;16.04;67.41
46942;BME280;32676;52.630;4.896;2023-09-19T06:30:33;99494.91;;;16.08;66.70
46942;BME280;32676;52.630;4.896;2023-09-19T06:33:01;99519.25;;;16.14;65.82
46942;BME280;32676;52.630;4.896;2023-09-19T06:35:32;99536.59;;;16.18;65.35
46942;BME280;32676;52.630;4.896;2023-09-19T06:38:02;99549.75;;;16.19;65.26
46942;BME280;32676;52.630;4.896;2023-09-19T06:40:29;99575.88;;;16.24;65.44
46942;BME280;32676;52.630;4.896;2023-09-19T06:42:56;99591.34;;;16.30;65.74
46942;BME280;32676;52.630;4.896;2023-09-19T06:45:23;99617.47;;;16.35;65.61
46942;BME280;32676;52.630;4.896;2023-09-19T06:47:52;99632.31;;;16.37;66.08
46942;BME280;32676;52.630;4.896;2023-09-19T06:50:20;99639.31;;;16.38;66.18
46942;BME280;32676;52.630;4.896;2023-09-19T06:52:48;99653.28;;;16.40;66.03
46942;BME280;32676;52.630;4.896;2023-09-19T06:55:17;99693.09;;;16.51;65.83
46942;BME280;32676;52.630;4.896;2023-09-19T06:57:45;99727.84;;;16.60;65.73
46942;BME280;32676;52.630;4.896;2023-09-19T07:00:12;99750.53;;;16.64;65.77
46942;BME280;32676;52.630;4.896;2023-09-19T07:02:43;99762.59;;;16.68;65.82
46942;BME280;32676;52.630;4.896;2023-09-19T07:05:10;99784.31;;;16.73;65.62
46942;BME280;32676;52.630;4.896;2023-09-19T07:07:36;99788.66;;;16.74;65.72
46942;BME280;32676;52.630;4.896;2023-09-19T07:10:03;99775.59;;;16.60;65.53
46942;BME280;32676;52.630;4.896;2023-09-19T07:12:32;99831.38;;;16.82;64.89
46942;BME280;32676;52.630;4.896;2023-09-19T07:14:59;99837.44;;;16.84;64.27
46942;BME280;32676;52.630;4.896;2023-09-19T07:17:25;99868.03;;;16.90;64.74
46942;BME280;32676;52.630;4.896;2023-09-19T07:19:52;99897.69;;;16.95;64.71
46942;BME280;32676;52.630;4.896;2023-09-19T07:22:19;99934.78;;;17.08;64.33
46942;BME280;32676;52.630;4.896;2023-09-19T07:24:45;99962.81;;;17.12;64.07
46942;BME280;32676;52.630;4.896;2023-09-19T07:27:14;99973.19;;;17.15;63.81
46942;BME280;32676;52.630;4.896;2023-09-19T07:29:41;99987.22;;;17.17;63.62
46942;BME280;32676;52.630;4.896;2023-09-19T07:32:08;100014.06;;;17.25;63.86
46942;BME280;32676;52.630;4.896;2023-09-19T07:34:35;100042.78;;;17.32;64.06
46942;BME280;32676;52.630;4.896;2023-09-19T07:37:04;100061.91;;;17.37;63.89
46942;BME280;32676;52.630;4.896;2023-09-19T07:39:32;100088.25;;;17.40;63.82
46942;BME280;32676;52.630;4.896;2023-09-19T07:41:58;100120.41;;;17.48;63.43
46942;BME280;32676;52.630;4.896;2023-09-19T07:44:25;100145.81;;;17.52;62.85
46942;BME280;32676;52.630;4.896;2023-09-19T07:46:53;100168.31;;;17.59;62.96
46942;BME280;32676;52.630;4.896;2023-09-19T07:49:20;100179.66;;;17.61;62.53
46942;BME280;32676;52.630;4.896;2023-09-19T07:51:46;100206.75;;;17.67;62.46
46942;BME280;32676;52.630;4.896;2023-09-19T07:54:13;100240.13;;;17.71;61.75
46942;BME280;32676;52.630;4.896;2023-09-19T07:56:39;100271.97;;;17.83;61.99
46942;BME280;32676;52.630;4.896;2023-09-19T07:59:06;100313.03;;;17.92;61.74
46942;BME280;32676;52.630;4.896;2023-09-19T08:01:33;100337.50;;;17.97;62.01
46942;BME280;32676;52.630;4.896;2023-09-19T08:04:02;100364.56;;;18.02;62.13
46942;BME280;32676;52.630;4.896;2023-09-19T08:06:28;100375.72;;;18.08;62.38
46942;BME280;32676;52.630;4.896;2023-09-19T08:08:55;100394.13;;;18.11;62.08
46942;BME280;32676;52.630;4.896;2023-09-19T08:11:22;100395.97;;;18.10;61.68
46942;BME280;32676;52.630;4.896;2023-09-19T08:13:49;100430.81;;;18.18;62.02
46942;BME280;32676;52.630;4.896;2023-09-19T08:16:16;100427.44;;;18.16;62.54
46942;BME280;32676;52.630;4.896;2023-09-19T08:18:46;100449.97;;;18.23;62.68
46942;BME280;32676;52.630;4.896;2023-09-19T08:21:14;100448.16;;;18.24;62.86
46942;BME280;32676;52.630;4.896;2023-09-19T08:23:41;100453.47;;;18.24;62.44
46942;BME280;32676;52.630;4.896;2023-09-19T08:26:08;100436.97;;;18.19;62.45
46942;BME280;32676;52.630;4.896;2023-09-19T08:28:35;100450.06;;;18.22;62.37
46942;BME280;32676;52.630;4.896;2023-09-19T08:31:02;100436.97;;;18.19;63.22
46942;BME280;32676;52.630;4.896;2023-09-19T08:33:31;100456.13;;;18.24;63.40
46942;BME280;32676;52.630;4.896;2023-09-19T08:35:58;100488.38;;;18.32;63.39
46942;BME280;32676;52.630;4.896;2023-09-19T08:38:26;100525.06;;;18.40;63.70
46942;BME280;32676;52.630;4.896;2023-09-19T08:40:57;100557.34;;;18.48;63.89
46942;BME280;32676;52.630;4.896;2023-09-19T08:43:23;100589.13;;;18.50;63.77
46942;BME280;32676;52.630;4.896;2023-09-19T08:45:51;100587.00;;;18.55;63.36
46942;BME280;32676;52.630;4.896;2023-09-19T08:48:23;100587.00;;;18.55;62.57
46942;BME280;32676;52.630;4.896;2023-09-19T08:50:52;100615.00;;;18.60;62.73
46942;BME280;32676;52.630;4.896;2023-09-19T08:53:26;100635.97;;;18.65;62.74
46942;BME280;32676;52.630;4.896;2023-09-19T08:55:59;100662.16;;;18.71;62.83
46942;BME280;32676;52.630;4.896;2023-09-19T08:58:44;100683.91;;;18.78;62.73
46942;BME280;32676;52.630;4.896;2023-09-19T09:01:13;100705.88;;;18.82;62.21
46942;BME280;32676;52.630;4.896;2023-09-19T09:03:41;100708.53;;;18.82;62.15
46942;BME280;32676;52.630;4.896;2023-09-19T09:06:13;100747.84;;;18.91;61.86
46942;BME280;32676;52.630;4.896;2023-09-19T09:08:43;100771.38;;;18.97;62.59
46942;BME280;32676;52.630;4.896;2023-09-19T09:11:10;100800.25;;;19.03;63.02
46942;BME280;32676;52.630;4.896;2023-09-19T09:13:37;100807.28;;;19.04;63.12
46942;BME280;32676;52.630;4.896;2023-09-19T09:16:04;100805.34;;;19.06;62.32
46942;BME280;32676;52.630;4.896;2023-09-19T09:18:30;100815.25;;;19.04;61.93
46942;BME280;32676;52.630;4.896;2023-09-19T09:20:57;100829.97;;;19.10;61.95
46942;BME280;32676;52.630;4.896;2023-09-19T09:23:24;100865.78;;;19.18;62.29
46942;BME280;32676;52.630;4.896;2023-09-19T09:25:53;100874.53;;;19.21;62.78
46942;BME280;32676;52.630;4.896;2023-09-19T09:28:23;100884.03;;;19.25;62.89
46942;BME280;32676;52.630;4.896;2023-09-19T09:30:50;100898.09;;;19.27;62.80
46942;BME280;32676;52.630;4.896;2023-09-19T09:33:17;100903.44;;;19.27;62.80
46942;BME280;32676;52.630;4.896;2023-09-19T09:35:48;100891.06;;;19.26;63.21
46942;BME280;32676;52.630;4.896;2023-09-19T09:38:17;100891.06;;;19.26;64.66
46942;BME280;32676;52.630;4.896;2023-09-19T09:40:47;100906.84;;;19.29;66.20
46942;BME280;32676;52.630;4.896;2023-09-19T09:43:29;100885.81;;;19.24;67.19
46942;BME280;32676;52.630;4.896;2023-09-19T09:46:08;100863.13;;;19.18;67.28
46942;BME280;32676;52.630;4.896;2023-09-19T09:48:57;100872.75;;;19.21;67.26
46942;BME280;32676;52.630;4.896;2023-09-19T09:51:38;100836.91;;;19.12;66.50
46942;BME280;32676;52.630;4.896;2023-09-19T09:54:11;100833.50;;;19.10;66.33
46942;BME280;32676;52.630;4.896;2023-09-19T09:56:52;100815.16;;;19.06;67.30
46942;BME280;32676;52.630;4.896;2023-09-19T09:59:20;100779.16;;;19.00;67.23
46942;BME280;32676;52.630;4.896;2023-09-19T10:01:49;100719.06;;;18.83;67.88
46942;BME280;32676;52.630;4.896;2023-09-19T10:04:27;100691.78;;;18.79;69.72
46942;BME280;32676;52.630;4.896;2023-09-19T10:06:57;100650.66;;;18.71;70.63
46942;BME280;32676;52.630;4.896;2023-09-19T10:09:23;100607.88;;;18.61;70.84
46942;BME280;32676;52.630;4.896;2023-09-19T10:12:05;100617.66;;;18.60;71.10
46942;BME280;32676;52.630;4.896;2023-09-19T10:14:37;100638.53;;;18.67;71.26
46942;BME280;32676;52.630;4.896;2023-09-19T10:17:05;100653.34;;;18.71;71.09
46942;BME280;32676;52.630;4.896;2023-09-19T10:19:42;100679.63;;;18.75;70.57
46942;BME280;32676;52.630;4.896;2023-09-19T10:22:12;100700.53;;;18.82;70.01
46942;BME280;32676;52.630;4.896;2023-09-19T10:24:43;100723.31;;;18.86;69.58
46942;BME280;32676;52.630;4.896;2023-09-19T10:27:10;100749.56;;;18.92;68.91
46942;BME280;32676;52.630;4.896;2023-09-19T10:29:39;100733.78;;;18.89;68.46
46942;BME280;32676;52.630;4.896;2023-09-19T10:32:06;100706.72;;;18.82;68.62
46942;BME280;32676;52.630;4.896;2023-09-19T10:34:35;100694.53;;;18.78;68.31
46942;BME280;32676;52.630;4.896;2023-09-19T10:37:02;100685.81;;;18.76;68.63
46942;BME280;32676;52.630;4.896;2023-09-19T10:39:32;100672.59;;;18.74;68.57
46942;BME280;32676;52.630;4.896;2023-09-19T10:42:02;100663.88;;;18.72;68.87
46942;BME280;32676;52.630;4.896;2023-09-19T10:44:32;100635.00;;;18.66;69.19
46942;BME280;32676;52.630;4.896;2023-09-19T10:47:00;100601.06;;;18.57;69.12
46942;BME280;32676;52.630;4.896;2023-09-19T10:49:28;100572.31;;;18.49;69.39
46942;BME280;32676;52.630;4.896;2023-09-19T10:51:59;100560.84;;;18.49;70.58
46942;BME280;32676;52.630;4.896;2023-09-19T10:54:29;100510.19;;;18.37;71.63
46942;BME280;32676;52.630;4.896;2023-09-19T10:56:59;100483.25;;;18.29;72.92
46942;BME280;32676;52.630;4.896;2023-09-19T10:59:26;100444.00;;;18.20;74.08
46942;BME280;32676;52.630;4.896;2023-09-19T11:02:16;100350.78;;;17.97;74.79
46942;BME280;32676;52.630;4.896;2023-09-19T11:04:43;100266.03;;;17.80;75.79
46942;BME280;32676;52.630;4.896;2023-09-19T11:07:14;100219.91;;;17.68;76.80
46942;BME280;32676;52.630;4.896;2023-09-19T11:09:45;100203.47;;;17.63;77.29
46942;BME280;32676;52.630;4.896;2023-09-19T11:12:11;100237.47;;;17.71;77.33
46942;BME280;32676;52.630;4.896;2023-09-19T11:14:42;100276.66;;;17.80;77.79
46942;BME280;32676;52.630;4.896;2023-09-19T11:17:41;100296.66;;;17.86;77.92
46942;BME280;32676;52.630;4.896;2023-09-19T11:20:21;100299.41;;;17.84;77.76
46942;BME280;32676;52.630;4.896;2023-09-19T11:23:23;100341.53;;;17.90;77.92
46942;BME280;32676;52.630;4.896;2023-09-19T11:25:52;100412.75;;;18.11;77.85
46942;BME280;32676;52.630;4.896;2023-09-19T11:28:33;100444.22;;;18.17;77.57
46942;BME280;32676;52.630;4.896;2023-09-19T11:37:00;100532.41;;;18.36;75.04
46942;BME280;32676;52.630;4.896;2023-09-19T11:39:29;100557.00;;;18.40;74.99
46942;BME280;32676;52.630;4.896;2023-09-19T11:41:58;100545.72;;;18.36;74.80
46942;BME280;32676;52.630;4.896;2023-09-19T11:44:32;100546.47;;;18.38;74.08
46942;BME280;32676;52.630;4.896;2023-09-19T11:47:01;100507.19;;;18.29;74.65
46942;BME280;32676;52.630;4.896;2023-09-19T11:49:30;100461.91;;;18.18;75.47
46942;BME280;32676;52.630;4.896;2023-09-19T11:51:58;100411.28;;;18.07;75.88
46942;BME280;32676;52.630;4.896;2023-09-19T11:54:31;100400.84;;;18.03;76.73
46942;BME280;32676;52.630;4.896;2023-09-19T11:56:59;100392.13;;;18.01;76.84
46942;BME280;32676;52.630;4.896;2023-09-19T11:59:28;100365.97;;;17.95;77.25
46942;BME280;32676;52.630;4.896;2023-09-19T12:01:56;100340.66;;;17.90;77.93
46942;BME280;32676;52.630;4.896;2023-09-19T12:04:36;100315.34;;;17.84;78.61
46942;BME280;32676;52.630;4.896;2023-09-19T12:07:04;100300.69;;;17.78;79.22
46942;BME280;32676;52.630;4.896;2023-09-19T12:09:33;100270.91;;;17.73;79.58
46942;BME280;32676;52.630;4.896;2023-09-19T12:11:59;100275.41;;;17.73;80.25
46942;BME280;32676;52.630;4.896;2023-09-19T12:14:26;100310.25;;;17.81;80.47
46942;BME280;32676;52.630;4.896;2023-09-19T12:16:54;100333.03;;;17.85;80.33
46942;BME280;32676;52.630;4.896;2023-09-19T12:19:22;100333.03;;;17.85;79.46
46942;BME280;32676;52.630;4.896;2023-09-19T12:21:56;100342.69;;;17.86;79.44
46942;BME280;32676;52.630;4.896;2023-09-19T12:24:24;100355.78;;;17.89;79.15
46942;BME280;32676;52.630;4.896;2023-09-19T12:27:00;100395.97;;;17.97;78.92
46942;BME280;32676;52.630;4.896;2023-09-19T12:29:30;100441.28;;;18.09;78.74
46942;BME280;32676;52.630;4.896;2023-09-19T12:31:58;100505.94;;;18.22;78.71
46942;BME280;32676;52.630;4.896;2023-09-19T12:34:30;100535.53;;;18.30;78.31
46942;BME280;32676;52.630;4.896;2023-09-19T12:37:04;100549.56;;;18.32;77.99
46942;BME280;32676;52.630;4.896;2023-09-19T12:39:36;100570.41;;;18.38;78.02
46942;BME280;32676;52.630;4.896;2023-09-19T12:42:05;100586.16;;;18.41;78.02
46942;BME280;32676;52.630;4.896;2023-09-19T12:44:34;100592.66;;;18.37;77.86
46942;BME280;32676;52.630;4.896;2023-09-19T12:47:08;100615.97;;;18.47;77.76
46942;BME280;32676;52.630;4.896;2023-09-19T12:49:35;100638.09;;;18.47;77.90
46942;BME280;32676;52.630;4.896;2023-09-19T12:52:02;100687.59;;;18.63;77.50
46942;BME280;32676;52.630;4.896;2023-09-19T12:54:38;100688.47;;;18.63;76.84
46942;BME280;32676;52.630;4.896;2023-09-19T12:57:06;100712.00;;;18.69;76.36
46942;BME280;32676;52.630;4.896;2023-09-19T12:59:33;100737.53;;;18.72;76.51
46942;BME280;32676;52.630;4.896;2023-09-19T13:02:04;100753.22;;;18.76;76.41
46942;BME280;32676;52.630;4.896;2023-09-19T13:04:32;100752.28;;;18.77;76.80
46942;BME280;32676;52.630;4.896;2023-09-19T13:06:59;100745.22;;;18.76;76.63
46942;BME280;32676;52.630;4.896;2023-09-19T13:09:27;100703.25;;;18.67;77.16
46942;BME280;32676;52.630;4.896;2023-09-19T13:11:59;100676.22;;;18.60;77.78